sensor_id;sensor_type;location;lat;lon;timestamp;temperature;humidity
17381;DHT22;8808;52.478;13.378;2022-11-15T00:02:10;6.60;99.90
17381;DHT22;8808;52.478;13.378;2022-11-15T00:04:37;6.60;99.90
17381;DHT22;8808;52.478;13.378;2022-11-15T00:07:05;6.50;99.90
17381;DHT22;8808;52.478;13.378;2022-11-15T00:09:32;6.50;99.90
17381;DHT22;8808;52.478;13.378;2022-11-15T00:11:59;6.50;99.90
17381;DHT22;8808;52.478;13.378;2022-11-15T00:14:26;6.50;99.90
17381;DHT22;8808;52.478;13.378;2022-11-15T00:16:53;6.50;99.90
17381;DHT22;8808;52.478;13.378;2022-11-15T00:19:20;6.50;99.90
17381;DHT22;8808;52.478;13.378;2022-11-15T00:21:46;6.50;99.90
17381;DHT22;8808;52.478;13.378;2022-11-15T00:24:15;6.50;99.90
17381;DHT22;8808;52.478;13.378;2022-11-15T00:26:42;6.40;99.90
17381;DHT22;8808;52.478;13.378;2022-11-15T00:29:09;6.50;99.90
17381;DHT22;8808;52.478;13.378;2022-11-15T00:31:36;6.50;99.90
17381;DHT22;8808;52.478;13.378;2022-11-15T00:34:03;6.50;99.90
17381;DHT22;8808;52.478;13.378;2022-11-15T00:36:32;6.20;99.90
17381;DHT22;8808;52.478;13.378;2022-11-15T00:38:59;6.50;99.90
17381;DHT22;8808;52.478;13.378;2022-11-15T00:41:28;6.40;99.90
17381;DHT22;8808;52.478;13.378;2022-11-15T00:43:55;6.40;99.90
17381;DHT22;8808;52.478;13.378;2022-11-15T00:46:22;6.30;99.90
17381;DHT22;8808;52.478;13.378;2022-11-15T00:48:48;6.30;99.90
17381;DHT22;8808;52.478;13.378;2022-11-15T00:51:15;6.30;99.90
17381;DHT22;8808;52.478;13.378;2022-11-15T00:53:42;6.20;99.90
17381;DHT22;8808;52.478;13.378;2022-11-15T00:56:09;6.30;99.90
17381;DHT22;8808;52.478;13.378;2022-11-15T00:58:38;6.30;99.90
17381;DHT22;8808;52.478;13.378;2022-11-15T01:01:06;6.10;99.90
17381;DHT22;8808;52.478;13.378;2022-11-15T01:03:34;6.10;99.90
17381;DHT22;8808;52.478;13.378;2022-11-15T01:06:01;6.00;99.90
17381;DHT22;8808;52.478;13.378;2022-11-15T01:08:28;6.10;99.90
17381;DHT22;8808;52.478;13.378;2022-11-15T01:11:00;6.10;99.90
17381;DHT22;8808;52.478;13.378;2022-11-15T01:13:30;6.00;99.90
17381;DHT22;8808;52.478;13.378;2022-11-15T01:15:59;5.90;99.90
17381;DHT22;8808;52.478;13.378;2022-11-15T01:18:26;6.00;99.90
17381;DHT22;8808;52.478;13.378;2022-11-15T01:20:52;6.00;99.90
17381;DHT22;8808;52.478;13.378;2022-11-15T01:23:19;6.00;99.90
17381;DHT22;8808;52.478;13.378;2022-11-15T01:25:46;6.00;99.90
17381;DHT22;8808;52.478;13.378;2022-11-15T01:28:13;6.10;99.90
17381;DHT22;8808;52.478;13.378;2022-11-15T01:30:40;5.90;99.90
17381;DHT22;8808;52.478;13.378;2022-11-15T01:33:09;6.00;99.90
17381;DHT22;8808;52.478;13.378;2022-11-15T01:35:38;6.00;99.90
17381;DHT22;8808;52.478;13.378;2022-11-15T01:38:06;6.10;99.90
17381;DHT22;8808;52.478;13.378;2022-11-15T01:40:33;6.00;99.90
17381;DHT22;8808;52.478;13.378;2022-11-15T01:43:19;5.90;99.90
17381;DHT22;8808;52.478;13.378;2022-11-15T01:45:50;5.90;99.90
17381;DHT22;8808;52.478;13.378;2022-11-15T01:48:21;5.90;99.90
17381;DHT22;8808;52.478;13.378;2022-11-15T01:50:49;5.80;99.90
17381;DHT22;8808;52.478;13.378;2022-11-15T01:53:17;5.90;99.90
17381;DHT22;8808;52.478;13.378;2022-11-15T01:55:46;5.90;99.90
17381;DHT22;8808;52.478;13.378;2022-11-15T01:58:13;6.00;99.90
17381;DHT22;8808;52.478;13.378;2022-11-15T02:03:15;5.90;99.90
17381;DHT22;8808;52.478;13.378;2022-11-15T02:05:44;5.90;99.90
17381;DHT22;8808;52.478;13.378;2022-11-15T02:08:11;5.70;99.90
17381;DHT22;8808;52.478;13.378;2022-11-15T02:10:45;5.80;99.90
17381;DHT22;8808;52.478;13.378;2022-11-15T02:13:12;5.70;99.90
17381;DHT22;8808;52.478;13.378;2022-11-15T02:15:44;5.60;99.90
17381;DHT22;8808;52.478;13.378;2022-11-15T02:18:22;5.80;99.90
17381;DHT22;8808;52.478;13.378;2022-11-15T02:21:09;5.80;99.90
17381;DHT22;8808;52.478;13.378;2022-11-15T02:24:14;5.70;99.90
17381;DHT22;8808;52.478;13.378;2022-11-15T02:27:01;5.80;99.90
17381;DHT22;8808;52.478;13.378;2022-11-15T02:29:43;5.70;99.90
17381;DHT22;8808;52.478;13.378;2022-11-15T02:32:19;5.70;99.90
17381;DHT22;8808;52.478;13.378;2022-11-15T02:34:52;5.60;99.90
17381;DHT22;8808;52.478;13.378;2022-11-15T02:37:26;5.70;99.90
17381;DHT22;8808;52.478;13.378;2022-11-15T02:40:06;5.70;99.90
17381;DHT22;8808;52.478;13.378;2022-11-15T02:42:41;5.70;99.90
17381;DHT22;8808;52.478;13.378;2022-11-15T02:45:33;5.70;99.90
17381;DHT22;8808;52.478;13.378;2022-11-15T02:48:05;5.70;99.90
17381;DHT22;8808;52.478;13.378;2022-11-15T02:50:34;5.70;99.90
17381;DHT22;8808;52.478;13.378;2022-11-15T02:53:01;5.70;99.90
17381;DHT22;8808;52.478;13.378;2022-11-15T02:55:30;5.70;99.90
17381;DHT22;8808;52.478;13.378;2022-11-15T02:58:19;5.70;99.90
17381;DHT22;8808;52.478;13.378;2022-11-15T03:00:55;5.80;99.90
17381;DHT22;8808;52.478;13.378;2022-11-15T03:03:45;5.80;99.90
17381;DHT22;8808;52.478;13.378;2022-11-15T03:06:22;5.70;99.90
17381;DHT22;8808;52.478;13.378;2022-11-15T03:09:02;5.70;99.90
17381;DHT22;8808;52.478;13.378;2022-11-15T03:11:32;5.70;99.90
17381;DHT22;8808;52.478;13.378;2022-11-15T03:14:05;5.80;99.90
17381;DHT22;8808;52.478;13.378;2022-11-15T03:16:37;5.60;99.90
17381;DHT22;8808;52.478;13.378;2022-11-15T03:19:12;5.50;99.90
17381;DHT22;8808;52.478;13.378;2022-11-15T03:21:40;5.60;99.90
17381;DHT22;8808;52.478;13.378;2022-11-15T03:24:08;5.60;99.90
17381;DHT22;8808;52.478;13.378;2022-11-15T03:26:37;5.70;99.90
17381;DHT22;8808;52.478;13.378;2022-11-15T03:29:09;5.60;99.90
17381;DHT22;8808;52.478;13.378;2022-11-15T03:31:41;5.50;99.90
17381;DHT22;8808;52.478;13.378;2022-11-15T03:34:19;5.50;99.90
17381;DHT22;8808;52.478;13.378;2022-11-15T03:36:48;5.60;99.90
17381;DHT22;8808;52.478;13.378;2022-11-15T03:39:16;5.60;99.90
17381;DHT22;8808;52.478;13.378;2022-11-15T03:41:48;5.60;99.90
17381;DHT22;8808;52.478;13.378;2022-11-15T03:44:22;5.70;99.90
17381;DHT22;8808;52.478;13.378;2022-11-15T03:46:57;5.60;99.90
17381;DHT22;8808;52.478;13.378;2022-11-15T03:49:29;5.40;99.90
17381;DHT22;8808;52.478;13.378;2022-11-15T03:51:58;5.40;99.90
17381;DHT22;8808;52.478;13.378;2022-11-15T03:54:25;5.40;99.90
17381;DHT22;8808;52.478;13.378;2022-11-15T03:56:52;5.30;99.90
17381;DHT22;8808;52.478;13.378;2022-11-15T03:59:19;5.20;99.90
17381;DHT22;8808;52.478;13.378;2022-11-15T04:01:46;5.20;99.90
17381;DHT22;8808;52.478;13.378;2022-11-15T04:04:13;5.30;99.90
17381;DHT22;8808;52.478;13.378;2022-11-15T04:06:41;5.50;99.90
17381;DHT22;8808;52.478;13.378;2022-11-15T04:09:08;5.70;99.90
17381;DHT22;8808;52.478;13.378;2022-11-15T04:11:35;5.60;99.90
17381;DHT22;8808;52.478;13.378;2022-11-15T04:14:02;5.80;99.90
17381;DHT22;8808;52.478;13.378;2022-11-15T04:16:30;5.80;99.90
17381;DHT22;8808;52.478;13.378;2022-11-15T04:36:58;2.00;99.90
17381;DHT22;8808;52.478;13.378;2022-11-15T04:39:42;5.50;99.90
17381;DHT22;8808;52.478;13.378;2022-11-15T04:42:10;5.70;99.90
17381;DHT22;8808;52.478;13.378;2022-11-15T04:44:37;5.60;99.90
17381;DHT22;8808;52.478;13.378;2022-11-15T04:49:32;5.50;99.90
17381;DHT22;8808;52.478;13.378;2022-11-15T04:52:00;5.40;99.90
17381;DHT22;8808;52.478;13.378;2022-11-15T04:54:27;5.40;99.90
17381;DHT22;8808;52.478;13.378;2022-11-15T04:56:54;5.40;99.90
17381;DHT22;8808;52.478;13.378;2022-11-15T04:59:21;5.50;99.90
17381;DHT22;8808;52.478;13.378;2022-11-15T05:01:48;5.50;99.90
17381;DHT22;8808;52.478;13.378;2022-11-15T05:04:15;5.60;99.90
17381;DHT22;8808;52.478;13.378;2022-11-15T05:06:49;5.50;99.90
17381;DHT22;8808;52.478;13.378;2022-11-15T05:09:18;5.40;99.90
17381;DHT22;8808;52.478;13.378;2022-11-15T05:11:45;5.50;99.90
17381;DHT22;8808;52.478;13.378;2022-11-15T05:14:13;5.50;99.90
17381;DHT22;8808;52.478;13.378;2022-11-15T05:16:40;5.30;99.90
17381;DHT22;8808;52.478;13.378;2022-11-15T05:19:07;5.20;99.90
17381;DHT22;8808;52.478;13.378;2022-11-15T05:21:35;5.30;99.90
17381;DHT22;8808;52.478;13.378;2022-11-15T05:24:02;5.20;99.90
17381;DHT22;8808;52.478;13.378;2022-11-15T05:26:30;5.30;99.90
17381;DHT22;8808;52.478;13.378;2022-11-15T05:28:58;5.40;99.90
17381;DHT22;8808;52.478;13.378;2022-11-15T05:31:26;5.30;99.90
17381;DHT22;8808;52.478;13.378;2022-11-15T05:33:54;5.20;99.90
17381;DHT22;8808;52.478;13.378;2022-11-15T05:36:28;5.20;99.90
17381;DHT22;8808;52.478;13.378;2022-11-15T05:38:56;5.20;99.90
17381;DHT22;8808;52.478;13.378;2022-11-15T05:41:30;5.10;99.90
17381;DHT22;8808;52.478;13.378;2022-11-15T05:44:00;5.00;99.90
17381;DHT22;8808;52.478;13.378;2022-11-15T05:46:28;5.00;99.90
17381;DHT22;8808;52.478;13.378;2022-11-15T05:48:56;5.00;99.90
17381;DHT22;8808;52.478;13.378;2022-11-15T05:51:23;4.90;99.90
17381;DHT22;8808;52.478;13.378;2022-11-15T05:53:51;5.00;99.90
17381;DHT22;8808;52.478;13.378;2022-11-15T05:56:19;5.10;99.90
17381;DHT22;8808;52.478;13.378;2022-11-15T05:58:47;5.00;99.90
17381;DHT22;8808;52.478;13.378;2022-11-15T06:01:14;5.00;99.90
17381;DHT22;8808;52.478;13.378;2022-11-15T06:03:41;5.10;99.90
17381;DHT22;8808;52.478;13.378;2022-11-15T06:06:08;5.00;99.90
17381;DHT22;8808;52.478;13.378;2022-11-15T06:08:35;5.10;99.90
17381;DHT22;8808;52.478;13.378;2022-11-15T06:11:05;5.20;99.90
17381;DHT22;8808;52.478;13.378;2022-11-15T06:13:33;5.10;99.90
17381;DHT22;8808;52.478;13.378;2022-11-15T06:16:01;5.30;99.90
17381;DHT22;8808;52.478;13.378;2022-11-15T06:18:31;5.30;99.90
17381;DHT22;8808;52.478;13.378;2022-11-15T06:20:59;5.20;99.90
17381;DHT22;8808;52.478;13.378;2022-11-15T06:23:26;5.40;99.90
17381;DHT22;8808;52.478;13.378;2022-11-15T06:25:53;5.40;99.90
17381;DHT22;8808;52.478;13.378;2022-11-15T06:28:20;5.60;99.90
17381;DHT22;8808;52.478;13.378;2022-11-15T06:30:47;5.50;99.90
17381;DHT22;8808;52.478;13.378;2022-11-15T06:33:15;5.50;99.90
17381;DHT22;8808;52.478;13.378;2022-11-15T06:35:42;5.60;99.90
17381;DHT22;8808;52.478;13.378;2022-11-15T06:38:10;5.60;99.90
17381;DHT22;8808;52.478;13.378;2022-11-15T06:40:38;5.70;99.90
17381;DHT22;8808;52.478;13.378;2022-11-15T06:43:05;5.60;99.90
17381;DHT22;8808;52.478;13.378;2022-11-15T06:45:32;5.70;99.90
17381;DHT22;8808;52.478;13.378;2022-11-15T06:47:59;5.60;99.90
17381;DHT22;8808;52.478;13.378;2022-11-15T06:50:28;5.60;99.90
17381;DHT22;8808;52.478;13.378;2022-11-15T06:52:55;5.60;99.90
17381;DHT22;8808;52.478;13.378;2022-11-15T06:55:22;5.70;99.90
17381;DHT22;8808;52.478;13.378;2022-11-15T06:57:50;5.80;99.90
17381;DHT22;8808;52.478;13.378;2022-11-15T07:00:18;5.80;99.90
17381;DHT22;8808;52.478;13.378;2022-11-15T07:02:46;5.80;99.90
17381;DHT22;8808;52.478;13.378;2022-11-15T07:05:14;5.80;99.90
17381;DHT22;8808;52.478;13.378;2022-11-15T07:07:43;5.80;99.90
17381;DHT22;8808;52.478;13.378;2022-11-15T07:10:09;5.80;99.90
17381;DHT22;8808;52.478;13.378;2022-11-15T07:12:36;5.90;99.90
17381;DHT22;8808;52.478;13.378;2022-11-15T07:15:04;5.80;99.90
17381;DHT22;8808;52.478;13.378;2022-11-15T07:17:31;5.80;99.90
17381;DHT22;8808;52.478;13.378;2022-11-15T07:19:58;5.80;99.90
17381;DHT22;8808;52.478;13.378;2022-11-15T07:22:25;5.90;99.90
17381;DHT22;8808;52.478;13.378;2022-11-15T07:24:54;5.90;99.90
17381;DHT22;8808;52.478;13.378;2022-11-15T07:27:21;6.00;99.90
17381;DHT22;8808;52.478;13.378;2022-11-15T07:29:48;6.10;99.90
17381;DHT22;8808;52.478;13.378;2022-11-15T07:32:15;6.10;99.90
17381;DHT22;8808;52.478;13.378;2022-11-15T07:34:41;6.20;99.90
17381;DHT22;8808;52.478;13.378;2022-11-15T07:37:08;6.10;99.90
17381;DHT22;8808;52.478;13.378;2022-11-15T07:39:35;6.30;99.90
17381;DHT22;8808;52.478;13.378;2022-11-15T07:42:04;6.30;99.90
17381;DHT22;8808;52.478;13.378;2022-11-15T07:44:49;6.40;99.90
17381;DHT22;8808;52.478;13.378;2022-11-15T07:47:16;6.40;99.90
17381;DHT22;8808;52.478;13.378;2022-11-15T07:49:43;6.60;99.90
17381;DHT22;8808;52.478;13.378;2022-11-15T07:52:11;6.70;99.90
17381;DHT22;8808;52.478;13.378;2022-11-15T07:54:38;6.60;99.90
17381;DHT22;8808;52.478;13.378;2022-11-15T07:57:06;6.70;99.90
17381;DHT22;8808;52.478;13.378;2022-11-15T07:59:34;6.80;99.90
17381;DHT22;8808;52.478;13.378;2022-11-15T08:02:02;6.90;99.90
17381;DHT22;8808;52.478;13.378;2022-11-15T08:04:29;6.90;99.90
17381;DHT22;8808;52.478;13.378;2022-11-15T08:06:56;6.90;99.90
17381;DHT22;8808;52.478;13.378;2022-11-15T08:09:22;7.00;99.90
17381;DHT22;8808;52.478;13.378;2022-11-15T08:11:49;7.20;99.90
17381;DHT22;8808;52.478;13.378;2022-11-15T08:14:18;7.20;99.90
17381;DHT22;8808;52.478;13.378;2022-11-15T08:16:47;7.30;99.90
17381;DHT22;8808;52.478;13.378;2022-11-15T08:19:14;7.30;99.90
17381;DHT22;8808;52.478;13.378;2022-11-15T08:21:41;7.40;99.90
17381;DHT22;8808;52.478;13.378;2022-11-15T08:24:09;7.40;99.90
17381;DHT22;8808;52.478;13.378;2022-11-15T08:26:36;7.50;99.90
17381;DHT22;8808;52.478;13.378;2022-11-15T08:29:03;7.60;99.90
17381;DHT22;8808;52.478;13.378;2022-11-15T08:31:32;7.70;99.90
17381;DHT22;8808;52.478;13.378;2022-11-15T08:33:58;7.80;99.90
17381;DHT22;8808;52.478;13.378;2022-11-15T08:36:26;7.90;99.90
17381;DHT22;8808;52.478;13.378;2022-11-15T08:38:53;8.10;99.90
17381;DHT22;8808;52.478;13.378;2022-11-15T08:41:25;8.10;99.90
17381;DHT22;8808;52.478;13.378;2022-11-15T08:43:53;8.10;99.90
17381;DHT22;8808;52.478;13.378;2022-11-15T08:46:20;8.30;99.90
17381;DHT22;8808;52.478;13.378;2022-11-15T08:48:48;8.40;99.90
17381;DHT22;8808;52.478;13.378;2022-11-15T08:51:15;8.40;99.90
17381;DHT22;8808;52.478;13.378;2022-11-15T08:53:43;8.40;99.90
17381;DHT22;8808;52.478;13.378;2022-11-15T08:56:10;8.60;99.90
17381;DHT22;8808;52.478;13.378;2022-11-15T08:58:38;8.70;99.90
17381;DHT22;8808;52.478;13.378;2022-11-15T09:01:05;8.70;99.90
17381;DHT22;8808;52.478;13.378;2022-11-15T09:03:32;8.70;99.90
17381;DHT22;8808;52.478;13.378;2022-11-15T09:06:01;8.90;99.90
17381;DHT22;8808;52.478;13.378;2022-11-15T09:08:30;8.90;99.90
17381;DHT22;8808;52.478;13.378;2022-11-15T09:10:57;9.00;99.90
17381;DHT22;8808;52.478;13.378;2022-11-15T09:13:24;9.10;99.90
17381;DHT22;8808;52.478;13.378;2022-11-15T09:15:51;9.30;99.90
17381;DHT22;8808;52.478;13.378;2022-11-15T09:18:18;9.40;99.90
17381;DHT22;8808;52.478;13.378;2022-11-15T09:20:47;9.30;99.90
17381;DHT22;8808;52.478;13.378;2022-11-15T09:23:16;9.50;99.90
17381;DHT22;8808;52.478;13.378;2022-11-15T09:25:42;9.60;99.90
17381;DHT22;8808;52.478;13.378;2022-11-15T09:28:09;9.70;99.90
17381;DHT22;8808;52.478;13.378;2022-11-15T09:30:36;9.80;99.90
17381;DHT22;8808;52.478;13.378;2022-11-15T09:33:07;9.90;99.90
17381;DHT22;8808;52.478;13.378;2022-11-15T09:35:34;10.00;99.90
17381;DHT22;8808;52.478;13.378;2022-11-15T09:38:01;10.00;99.90
17381;DHT22;8808;52.478;13.378;2022-11-15T09:40:30;10.20;99.90
17381;DHT22;8808;52.478;13.378;2022-11-15T09:43:08;10.30;99.90
17381;DHT22;8808;52.478;13.378;2022-11-15T09:45:41;10.40;99.90
17381;DHT22;8808;52.478;13.378;2022-11-15T09:48:25;10.50;99.90
17381;DHT22;8808;52.478;13.378;2022-11-15T09:50:56;10.60;99.90
17381;DHT22;8808;52.478;13.378;2022-11-15T09:53:29;10.80;99.90
17381;DHT22;8808;52.478;13.378;2022-11-15T09:56:03;10.90;99.90
17381;DHT22;8808;52.478;13.378;2022-11-15T09:58:36;10.90;99.90
17381;DHT22;8808;52.478;13.378;2022-11-15T10:01:08;10.90;99.90
17381;DHT22;8808;52.478;13.378;2022-11-15T10:03:39;11.10;99.90
17381;DHT22;8808;52.478;13.378;2022-11-15T10:06:13;11.30;99.90
17381;DHT22;8808;52.478;13.378;2022-11-15T10:08:49;11.30;99.90
17381;DHT22;8808;52.478;13.378;2022-11-15T10:11:20;11.40;99.90
17381;DHT22;8808;52.478;13.378;2022-11-15T10:13:50;11.50;99.90
17381;DHT22;8808;52.478;13.378;2022-11-15T10:16:30;11.50;99.90
17381;DHT22;8808;52.478;13.378;2022-11-15T10:19:06;11.50;99.90
17381;DHT22;8808;52.478;13.378;2022-11-15T10:21:40;11.50;99.90
17381;DHT22;8808;52.478;13.378;2022-11-15T10:24:11;11.40;99.90
17381;DHT22;8808;52.478;13.378;2022-11-15T10:26:45;11.40;99.90
17381;DHT22;8808;52.478;13.378;2022-11-15T10:29:18;11.40;99.90
17381;DHT22;8808;52.478;13.378;2022-11-15T10:31:45;11.50;99.90
17381;DHT22;8808;52.478;13.378;2022-11-15T10:34:14;11.40;99.90
17381;DHT22;8808;52.478;13.378;2022-11-15T10:36:44;11.50;99.90
17381;DHT22;8808;52.478;13.378;2022-11-15T10:39:12;11.50;99.90
17381;DHT22;8808;52.478;13.378;2022-11-15T10:41:42;11.50;99.90
17381;DHT22;8808;52.478;13.378;2022-11-15T10:44:28;11.60;99.90
17381;DHT22;8808;52.478;13.378;2022-11-15T10:47:27;11.70;99.90
17381;DHT22;8808;52.478;13.378;2022-11-15T10:50:02;11.90;99.90
17381;DHT22;8808;52.478;13.378;2022-11-15T10:52:30;12.00;99.90
17381;DHT22;8808;52.478;13.378;2022-11-15T10:55:03;12.10;99.90
17381;DHT22;8808;52.478;13.378;2022-11-15T10:57:33;12.20;99.90
17381;DHT22;8808;52.478;13.378;2022-11-15T11:00:05;12.40;99.90
17381;DHT22;8808;52.478;13.378;2022-11-15T11:02:36;12.50;99.90
17381;DHT22;8808;52.478;13.378;2022-11-15T11:05:05;12.60;99.90
17381;DHT22;8808;52.478;13.378;2022-11-15T11:07:34;12.80;99.90
17381;DHT22;8808;52.478;13.378;2022-11-15T11:10:05;12.80;99.90
17381;DHT22;8808;52.478;13.378;2022-11-15T11:12:45;12.80;99.90
17381;DHT22;8808;52.478;13.378;2022-11-15T11:15:14;12.80;99.90
17381;DHT22;8808;52.478;13.378;2022-11-15T11:17:52;12.90;99.90
17381;DHT22;8808;52.478;13.378;2022-11-15T11:20:26;12.80;99.90
17381;DHT22;8808;52.478;13.378;2022-11-15T11:23:05;12.90;99.90
17381;DHT22;8808;52.478;13.378;2022-11-15T11:25:46;13.00;99.90
17381;DHT22;8808;52.478;13.378;2022-11-15T11:28:30;13.00;99.90
17381;DHT22;8808;52.478;13.378;2022-11-15T11:31:11;13.00;99.90
17381;DHT22;8808;52.478;13.378;2022-11-15T11:33:44;13.00;99.90
17381;DHT22;8808;52.478;13.378;2022-11-15T11:36:21;13.00;99.90
17381;DHT22;8808;52.478;13.378;2022-11-15T11:38:57;13.00;99.90
17381;DHT22;8808;52.478;13.378;2022-11-15T11:41:39;13.00;99.90
17381;DHT22;8808;52.478;13.378;2022-11-15T11:44:24;13.10;99.90
17381;DHT22;8808;52.478;13.378;2022-11-15T11:46:56;13.10;99.90
17381;DHT22;8808;52.478;13.378;2022-11-15T11:49:32;13.00;99.90
17381;DHT22;8808;52.478;13.378;2022-11-15T11:52:05;13.10;99.90
17381;DHT22;8808;52.478;13.378;2022-11-15T11:54:40;13.00;99.90
17381;DHT22;8808;52.478;13.378;2022-11-15T11:57:16;13.00;99.90
17381;DHT22;8808;52.478;13.378;2022-11-15T11:59:50;13.10;99.90
17381;DHT22;8808;52.478;13.378;2022-11-15T12:02:24;13.10;99.90
17381;DHT22;8808;52.478;13.378;2022-11-15T12:05:00;13.00;99.90
17381;DHT22;8808;52.478;13.378;2022-11-15T12:07:31;13.00;99.90
17381;DHT22;8808;52.478;13.378;2022-11-15T12:10:03;13.10;99.90
17381;DHT22;8808;52.478;13.378;2022-11-15T12:12:35;13.10;99.90
17381;DHT22;8808;52.478;13.378;2022-11-15T12:15:12;13.10;99.90
17381;DHT22;8808;52.478;13.378;2022-11-15T12:17:41;13.10;99.90
17381;DHT22;8808;52.478;13.378;2022-11-15T12:20:16;13.20;99.90
17381;DHT22;8808;52.478;13.378;2022-11-15T12:22:47;13.20;99.90
17381;DHT22;8808;52.478;13.378;2022-11-15T12:25:24;13.20;99.90
17381;DHT22;8808;52.478;13.378;2022-11-15T12:27:57;13.20;99.90
17381;DHT22;8808;52.478;13.378;2022-11-15T12:30:37;13.30;99.90
17381;DHT22;8808;52.478;13.378;2022-11-15T12:33:32;13.40;99.90
17381;DHT22;8808;52.478;13.378;2022-11-15T12:36:02;13.40;99.90
17381;DHT22;8808;52.478;13.378;2022-11-15T12:38:55;13.40;99.90
17381;DHT22;8808;52.478;13.378;2022-11-15T12:41:23;13.40;99.90
17381;DHT22;8808;52.478;13.378;2022-11-15T12:43:51;13.50;99.90
17381;DHT22;8808;52.478;13.378;2022-11-15T12:46:59;13.60;99.90
17381;DHT22;8808;52.478;13.378;2022-11-15T12:49:46;13.70;99.90
17381;DHT22;8808;52.478;13.378;2022-11-15T12:52:13;13.80;99.90
17381;DHT22;8808;52.478;13.378;2022-11-15T12:55:02;13.70;99.90
17381;DHT22;8808;52.478;13.378;2022-11-15T12:57:37;13.70;99.90
17381;DHT22;8808;52.478;13.378;2022-11-15T13:03:32;13.80;99.90
17381;DHT22;8808;52.478;13.378;2022-11-15T13:06:09;13.70;99.90
17381;DHT22;8808;52.478;13.378;2022-11-15T13:08:55;13.60;99.90
17381;DHT22;8808;52.478;13.378;2022-11-15T13:11:46;13.60;99.90
17381;DHT22;8808;52.478;13.378;2022-11-15T13:14:39;13.50;99.90
17381;DHT22;8808;52.478;13.378;2022-11-15T13:17:34;13.50;99.90
17381;DHT22;8808;52.478;13.378;2022-11-15T13:20:22;13.40;99.90
17381;DHT22;8808;52.478;13.378;2022-11-15T13:22:52;13.40;99.90
17381;DHT22;8808;52.478;13.378;2022-11-15T13:25:49;13.50;99.90
17381;DHT22;8808;52.478;13.378;2022-11-15T13:28:23;13.50;99.90
17381;DHT22;8808;52.478;13.378;2022-11-15T13:30:53;13.50;99.90
17381;DHT22;8808;52.478;13.378;2022-11-15T13:33:23;13.50;99.90
17381;DHT22;8808;52.478;13.378;2022-11-15T13:35:53;13.40;99.90
17381;DHT22;8808;52.478;13.378;2022-11-15T13:38:27;13.50;99.90
17381;DHT22;8808;52.478;13.378;2022-11-15T13:40:55;13.40;99.90
17381;DHT22;8808;52.478;13.378;2022-11-15T13:43:31;13.40;99.90
17381;DHT22;8808;52.478;13.378;2022-11-15T13:46:12;13.50;99.90
17381;DHT22;8808;52.478;13.378;2022-11-15T13:48:39;13.40;99.90
17381;DHT22;8808;52.478;13.378;2022-11-15T13:51:14;13.40;99.90
17381;DHT22;8808;52.478;13.378;2022-11-15T13:53:45;13.40;99.90
17381;DHT22;8808;52.478;13.378;2022-11-15T13:56:13;13.40;99.90
17381;DHT22;8808;52.478;13.378;2022-11-15T13:58:41;13.40;99.90
17381;DHT22;8808;52.478;13.378;2022-11-15T14:01:14;13.30;99.90
17381;DHT22;8808;52.478;13.378;2022-11-15T14:03:47;13.20;99.90
17381;DHT22;8808;52.478;13.378;2022-11-15T14:06:21;13.30;99.90
17381;DHT22;8808;52.478;13.378;2022-11-15T14:09:13;13.20;99.90
17381;DHT22;8808;52.478;13.378;2022-11-15T14:11:50;13.20;99.90
17381;DHT22;8808;52.478;13.378;2022-11-15T14:14:20;13.20;99.90
17381;DHT22;8808;52.478;13.378;2022-11-15T14:16:49;13.20;99.90
17381;DHT22;8808;52.478;13.378;2022-11-15T14:19:37;13.20;99.90
17381;DHT22;8808;52.478;13.378;2022-11-15T14:22:21;13.20;99.90
17381;DHT22;8808;52.478;13.378;2022-11-15T14:25:06;13.20;99.90
17381;DHT22;8808;52.478;13.378;2022-11-15T14:27:34;13.10;99.90
17381;DHT22;8808;52.478;13.378;2022-11-15T14:30:01;13.10;99.90
17381;DHT22;8808;52.478;13.378;2022-11-15T14:32:30;13.10;99.90
17381;DHT22;8808;52.478;13.378;2022-11-15T14:35:08;13.10;99.90
17381;DHT22;8808;52.478;13.378;2022-11-15T14:37:38;13.00;99.90
17381;DHT22;8808;52.478;13.378;2022-11-15T14:40:06;13.00;99.90
17381;DHT22;8808;52.478;13.378;2022-11-15T14:42:35;13.00;99.90
17381;DHT22;8808;52.478;13.378;2022-11-15T14:45:02;13.00;99.90
17381;DHT22;8808;52.478;13.378;2022-11-15T14:47:29;12.90;99.90
17381;DHT22;8808;52.478;13.378;2022-11-15T14:49:56;12.90;99.90
17381;DHT22;8808;52.478;13.378;2022-11-15T14:52:26;12.80;99.90
17381;DHT22;8808;52.478;13.378;2022-11-15T14:54:54;12.70;99.90
17381;DHT22;8808;52.478;13.378;2022-11-15T14:57:23;12.70;99.90
17381;DHT22;8808;52.478;13.378;2022-11-15T14:59:50;12.70;99.90
17381;DHT22;8808;52.478;13.378;2022-11-15T15:02:19;12.70;99.90
17381;DHT22;8808;52.478;13.378;2022-11-15T15:04:47;12.50;99.90
17381;DHT22;8808;52.478;13.378;2022-11-15T15:07:14;12.40;99.90
17381;DHT22;8808;52.478;13.378;2022-11-15T15:09:42;12.40;99.90
17381;DHT22;8808;52.478;13.378;2022-11-15T15:12:15;12.30;99.90
17381;DHT22;8808;52.478;13.378;2022-11-15T15:14:43;12.30;99.90
17381;DHT22;8808;52.478;13.378;2022-11-15T15:17:10;12.20;99.90
17381;DHT22;8808;52.478;13.378;2022-11-15T15:19:37;12.10;99.90
17381;DHT22;8808;52.478;13.378;2022-11-15T15:22:04;12.00;99.90
17381;DHT22;8808;52.478;13.378;2022-11-15T15:24:31;11.80;99.90
17381;DHT22;8808;52.478;13.378;2022-11-15T15:26:58;11.60;99.90
17381;DHT22;8808;52.478;13.378;2022-11-15T15:29:26;11.50;99.90
17381;DHT22;8808;52.478;13.378;2022-11-15T15:31:53;11.40;99.90
17381;DHT22;8808;52.478;13.378;2022-11-15T15:34:20;11.30;99.90
17381;DHT22;8808;52.478;13.378;2022-11-15T15:36:47;11.50;99.90
17381;DHT22;8808;52.478;13.378;2022-11-15T15:39:14;11.60;99.90
17381;DHT22;8808;52.478;13.378;2022-11-15T15:41:41;11.70;99.90
17381;DHT22;8808;52.478;13.378;2022-11-15T15:44:08;11.70;99.90
17381;DHT22;8808;52.478;13.378;2022-11-15T15:46:36;11.80;99.90
17381;DHT22;8808;52.478;13.378;2022-11-15T15:49:03;11.80;99.90
17381;DHT22;8808;52.478;13.378;2022-11-15T15:51:30;11.70;99.90
17381;DHT22;8808;52.478;13.378;2022-11-15T15:53:57;11.70;99.90
17381;DHT22;8808;52.478;13.378;2022-11-15T15:56:24;11.60;99.90
17381;DHT22;8808;52.478;13.378;2022-11-15T15:58:51;11.50;99.90
17381;DHT22;8808;52.478;13.378;2022-11-15T16:01:19;11.50;99.90
17381;DHT22;8808;52.478;13.378;2022-11-15T16:03:47;11.50;99.90
17381;DHT22;8808;52.478;13.378;2022-11-15T16:06:36;11.50;99.90
17381;DHT22;8808;52.478;13.378;2022-11-15T16:09:05;11.40;99.90
17381;DHT22;8808;52.478;13.378;2022-11-15T16:11:32;11.40;99.90
17381;DHT22;8808;52.478;13.378;2022-11-15T16:13:59;11.40;99.90
17381;DHT22;8808;52.478;13.378;2022-11-15T16:16:26;11.40;99.90
17381;DHT22;8808;52.478;13.378;2022-11-15T16:18:55;11.30;99.90
17381;DHT22;8808;52.478;13.378;2022-11-15T16:21:22;11.30;99.90
17381;DHT22;8808;52.478;13.378;2022-11-15T16:23:49;11.20;99.90
17381;DHT22;8808;52.478;13.378;2022-11-15T16:26:20;11.30;99.90
17381;DHT22;8808;52.478;13.378;2022-11-15T16:28:47;11.30;99.90
17381;DHT22;8808;52.478;13.378;2022-11-15T16:31:14;11.40;99.90